Terminal Aerodrome Forecast
Issued by NWS

Home | Current Version | Previous Version | Text Only | Print | Product List | Glossary On
Versions: 1 2 3 4 5 6 7 8 9 10 11 12 13 14 15 16
669
FTUS42 KTAE 252330
TAFECP
TAF
KECP 252330Z 2600/2624 VRB04KT P6SM OVC035
     FM260800 18005KT 4SM BR BKN002
     FM261300 19006KT 4SM SHRA VCTS SCT007 BKN025CB
     FM261900 19010KT P6SM BKN025=

USA.gov is the U.S. government's official web portal to all federal, state and local government web resources and services.